sensor_id;sensor_type;location;lat;lon;timestamp;P1;durP1;ratioP1;P2;durP2;ratioP2
47483;SDS011;54076;50.322;18.650;2023-07-13T00:04:45;4.30;;;2.10;;
47483;SDS011;54076;50.322;18.650;2023-07-13T00:09:47;10.10;;;2.70;;
47483;SDS011;54076;50.322;18.650;2023-07-13T00:14:48;5.10;;;2.30;;
47483;SDS011;54076;50.322;18.650;2023-07-13T00:19:50;4.30;;;1.80;;
47483;SDS011;54076;50.322;18.650;2023-07-13T00:24:53;8.20;;;2.10;;
47483;SDS011;54076;50.322;18.650;2023-07-13T00:29:56;4.30;;;2.10;;
47483;SDS011;54076;50.322;18.650;2023-07-13T00:34:58;5.00;;;1.50;;
47483;SDS011;54076;50.322;18.650;2023-07-13T00:40:02;4.00;;;1.70;;
47483;SDS011;54076;50.322;18.650;2023-07-13T00:50:14;4.50;;;1.80;;
47483;SDS011;54076;50.322;18.650;2023-07-13T00:55:16;5.60;;;2.10;;
47483;SDS011;54076;50.322;18.650;2023-07-13T01:00:18;6.30;;;2.30;;
47483;SDS011;54076;50.322;18.650;2023-07-13T01:05:22;6.30;;;2.60;;
47483;SDS011;54076;50.322;18.650;2023-07-13T01:10:25;5.90;;;2.20;;
47483;SDS011;54076;50.322;18.650;2023-07-13T01:15:43;6.50;;;2.70;;
47483;SDS011;54076;50.322;18.650;2023-07-13T01:20:51;6.60;;;2.90;;
47483;SDS011;54076;50.322;18.650;2023-07-13T01:25:59;6.30;;;2.70;;
47483;SDS011;54076;50.322;18.650;2023-07-13T01:31:01;4.80;;;2.30;;
47483;SDS011;54076;50.322;18.650;2023-07-13T01:36:02;5.50;;;2.40;;
47483;SDS011;54076;50.322;18.650;2023-07-13T01:41:03;7.30;;;3.50;;
47483;SDS011;54076;50.322;18.650;2023-07-13T01:46:04;6.00;;;2.10;;
47483;SDS011;54076;50.322;18.650;2023-07-13T01:51:05;7.80;;;2.90;;
47483;SDS011;54076;50.322;18.650;2023-07-13T01:56:06;6.50;;;2.30;;
47483;SDS011;54076;50.322;18.650;2023-07-13T02:01:07;6.40;;;2.20;;
47483;SDS011;54076;50.322;18.650;2023-07-13T02:06:08;6.80;;;2.10;;
47483;SDS011;54076;50.322;18.650;2023-07-13T02:11:09;6.20;;;2.80;;
47483;SDS011;54076;50.322;18.650;2023-07-13T02:16:09;6.70;;;2.90;;
47483;SDS011;54076;50.322;18.650;2023-07-13T02:21:10;10.00;;;2.50;;
47483;SDS011;54076;50.322;18.650;2023-07-13T02:26:11;6.20;;;2.60;;
47483;SDS011;54076;50.322;18.650;2023-07-13T02:31:14;7.30;;;2.50;;
47483;SDS011;54076;50.322;18.650;2023-07-13T02:36:16;5.80;;;2.90;;
47483;SDS011;54076;50.322;18.650;2023-07-13T02:41:17;5.60;;;2.60;;
47483;SDS011;54076;50.322;18.650;2023-07-13T02:46:18;6.50;;;2.90;;
47483;SDS011;54076;50.322;18.650;2023-07-13T02:51:20;6.50;;;2.90;;
47483;SDS011;54076;50.322;18.650;2023-07-13T02:56:23;7.40;;;2.90;;
47483;SDS011;54076;50.322;18.650;2023-07-13T03:01:26;8.30;;;3.50;;
47483;SDS011;54076;50.322;18.650;2023-07-13T03:06:27;6.80;;;3.40;;
47483;SDS011;54076;50.322;18.650;2023-07-13T03:11:31;7.50;;;3.20;;
47483;SDS011;54076;50.322;18.650;2023-07-13T03:16:32;6.20;;;3.20;;
47483;SDS011;54076;50.322;18.650;2023-07-13T03:21:33;7.00;;;3.10;;
47483;SDS011;54076;50.322;18.650;2023-07-13T03:26:33;6.20;;;3.20;;
47483;SDS011;54076;50.322;18.650;2023-07-13T03:31:36;7.10;;;3.10;;
47483;SDS011;54076;50.322;18.650;2023-07-13T03:36:37;7.10;;;3.20;;
47483;SDS011;54076;50.322;18.650;2023-07-13T03:41:38;7.90;;;3.70;;
47483;SDS011;54076;50.322;18.650;2023-07-13T03:46:39;9.20;;;3.80;;
47483;SDS011;54076;50.322;18.650;2023-07-13T03:51:40;6.30;;;3.20;;
47483;SDS011;54076;50.322;18.650;2023-07-13T03:56:41;7.40;;;3.70;;
47483;SDS011;54076;50.322;18.650;2023-07-13T04:01:43;7.60;;;3.80;;
47483;SDS011;54076;50.322;18.650;2023-07-13T04:06:44;10.00;;;3.80;;
47483;SDS011;54076;50.322;18.650;2023-07-13T04:11:45;10.00;;;4.00;;
47483;SDS011;54076;50.322;18.650;2023-07-13T04:16:46;9.10;;;3.70;;
47483;SDS011;54076;50.322;18.650;2023-07-13T04:21:47;9.90;;;4.30;;
47483;SDS011;54076;50.322;18.650;2023-07-13T04:26:48;7.80;;;4.10;;
47483;SDS011;54076;50.322;18.650;2023-07-13T04:31:50;7.80;;;3.80;;
47483;SDS011;54076;50.322;18.650;2023-07-13T04:36:51;10.50;;;4.00;;
47483;SDS011;54076;50.322;18.650;2023-07-13T04:41:52;10.50;;;3.90;;
47483;SDS011;54076;50.322;18.650;2023-07-13T04:46:53;8.60;;;4.40;;
47483;SDS011;54076;50.322;18.650;2023-07-13T04:51:54;8.60;;;4.60;;
47483;SDS011;54076;50.322;18.650;2023-07-13T04:56:55;7.70;;;4.30;;
47483;SDS011;54076;50.322;18.650;2023-07-13T05:01:56;9.20;;;4.10;;
47483;SDS011;54076;50.322;18.650;2023-07-13T05:06:59;7.90;;;3.90;;
47483;SDS011;54076;50.322;18.650;2023-07-13T05:12:00;7.60;;;4.30;;
47483;SDS011;54076;50.322;18.650;2023-07-13T05:17:01;11.00;;;4.20;;
47483;SDS011;54076;50.322;18.650;2023-07-13T05:22:02;10.80;;;4.70;;
47483;SDS011;54076;50.322;18.650;2023-07-13T05:27:04;9.00;;;4.50;;
47483;SDS011;54076;50.322;18.650;2023-07-13T05:32:05;10.50;;;5.10;;
47483;SDS011;54076;50.322;18.650;2023-07-13T05:37:07;7.10;;;3.50;;
47483;SDS011;54076;50.322;18.650;2023-07-13T05:42:08;7.30;;;3.60;;
47483;SDS011;54076;50.322;18.650;2023-07-13T05:47:09;7.80;;;3.50;;
47483;SDS011;54076;50.322;18.650;2023-07-13T05:52:10;8.60;;;3.60;;
47483;SDS011;54076;50.322;18.650;2023-07-13T05:57:11;9.00;;;4.00;;
47483;SDS011;54076;50.322;18.650;2023-07-13T06:02:12;7.60;;;3.50;;
47483;SDS011;54076;50.322;18.650;2023-07-13T06:07:13;7.50;;;3.00;;
47483;SDS011;54076;50.322;18.650;2023-07-13T06:12:13;7.80;;;3.60;;
47483;SDS011;54076;50.322;18.650;2023-07-13T06:17:14;14.40;;;3.80;;
47483;SDS011;54076;50.322;18.650;2023-07-13T06:22:15;9.00;;;3.20;;
47483;SDS011;54076;50.322;18.650;2023-07-13T06:27:16;7.70;;;3.10;;
47483;SDS011;54076;50.322;18.650;2023-07-13T06:32:17;7.40;;;3.60;;
47483;SDS011;54076;50.322;18.650;2023-07-13T06:37:18;5.90;;;3.10;;
47483;SDS011;54076;50.322;18.650;2023-07-13T06:42:19;8.60;;;3.40;;
47483;SDS011;54076;50.322;18.650;2023-07-13T06:47:20;6.30;;;3.50;;
47483;SDS011;54076;50.322;18.650;2023-07-13T06:52:21;9.60;;;4.00;;
47483;SDS011;54076;50.322;18.650;2023-07-13T06:57:21;8.50;;;3.50;;
47483;SDS011;54076;50.322;18.650;2023-07-13T07:02:23;6.40;;;3.20;;
47483;SDS011;54076;50.322;18.650;2023-07-13T07:07:24;7.00;;;3.20;;
47483;SDS011;54076;50.322;18.650;2023-07-13T07:12:25;8.20;;;3.90;;
47483;SDS011;54076;50.322;18.650;2023-07-13T07:17:26;9.40;;;3.70;;
47483;SDS011;54076;50.322;18.650;2023-07-13T07:22:27;7.00;;;3.80;;
47483;SDS011;54076;50.322;18.650;2023-07-13T07:27:28;11.00;;;4.00;;
47483;SDS011;54076;50.322;18.650;2023-07-13T07:32:30;8.80;;;4.70;;
47483;SDS011;54076;50.322;18.650;2023-07-13T07:37:31;8.20;;;4.30;;
47483;SDS011;54076;50.322;18.650;2023-07-13T07:42:32;20.60;;;12.70;;
47483;SDS011;54076;50.322;18.650;2023-07-13T07:47:33;14.60;;;7.70;;
47483;SDS011;54076;50.322;18.650;2023-07-13T07:52:34;9.90;;;4.70;;
47483;SDS011;54076;50.322;18.650;2023-07-13T07:57:35;9.40;;;3.90;;
47483;SDS011;54076;50.322;18.650;2023-07-13T08:02:36;9.00;;;3.90;;
47483;SDS011;54076;50.322;18.650;2023-07-13T08:07:38;7.40;;;4.30;;
47483;SDS011;54076;50.322;18.650;2023-07-13T08:12:40;12.10;;;4.40;;
47483;SDS011;54076;50.322;18.650;2023-07-13T08:17:41;6.50;;;3.60;;
47483;SDS011;54076;50.322;18.650;2023-07-13T08:22:42;7.10;;;3.90;;
47483;SDS011;54076;50.322;18.650;2023-07-13T08:27:43;10.30;;;4.30;;
47483;SDS011;54076;50.322;18.650;2023-07-13T08:32:43;8.70;;;4.20;;
47483;SDS011;54076;50.322;18.650;2023-07-13T08:37:45;10.40;;;5.10;;
47483;SDS011;54076;50.322;18.650;2023-07-13T08:42:49;11.60;;;5.20;;
47483;SDS011;54076;50.322;18.650;2023-07-13T08:48:03;8.70;;;5.00;;
47483;SDS011;54076;50.322;18.650;2023-07-13T08:53:09;12.20;;;5.10;;
47483;SDS011;54076;50.322;18.650;2023-07-13T08:58:15;8.80;;;4.80;;
47483;SDS011;54076;50.322;18.650;2023-07-13T09:03:21;10.90;;;5.20;;
47483;SDS011;54076;50.322;18.650;2023-07-13T09:08:46;10.20;;;4.70;;
47483;SDS011;54076;50.322;18.650;2023-07-13T09:19:28;10.20;;;4.40;;
47483;SDS011;54076;50.322;18.650;2023-07-13T09:25:01;5.40;;;3.00;;
47483;SDS011;54076;50.322;18.650;2023-07-13T09:30:33;5.90;;;2.50;;
47483;SDS011;54076;50.322;18.650;2023-07-13T09:35:40;5.20;;;2.20;;
47483;SDS011;54076;50.322;18.650;2023-07-13T09:46:21;7.70;;;2.20;;
47483;SDS011;54076;50.322;18.650;2023-07-13T09:51:22;6.20;;;2.10;;
47483;SDS011;54076;50.322;18.650;2023-07-13T09:56:27;5.80;;;2.30;;
47483;SDS011;54076;50.322;18.650;2023-07-13T10:01:35;6.20;;;2.10;;
47483;SDS011;54076;50.322;18.650;2023-07-13T10:06:39;5.10;;;2.00;;
47483;SDS011;54076;50.322;18.650;2023-07-13T10:11:43;4.80;;;1.70;;
47483;SDS011;54076;50.322;18.650;2023-07-13T10:16:46;6.30;;;1.90;;
47483;SDS011;54076;50.322;18.650;2023-07-13T10:21:52;4.20;;;1.50;;
47483;SDS011;54076;50.322;18.650;2023-07-13T10:27:16;5.10;;;1.90;;
47483;SDS011;54076;50.322;18.650;2023-07-13T10:32:21;5.90;;;1.60;;
47483;SDS011;54076;50.322;18.650;2023-07-13T10:37:27;4.40;;;2.00;;
47483;SDS011;54076;50.322;18.650;2023-07-13T10:42:38;5.50;;;2.00;;
47483;SDS011;54076;50.322;18.650;2023-07-13T10:47:43;6.10;;;2.10;;
47483;SDS011;54076;50.322;18.650;2023-07-13T10:52:49;5.00;;;1.60;;
47483;SDS011;54076;50.322;18.650;2023-07-13T10:57:52;5.90;;;2.00;;
47483;SDS011;54076;50.322;18.650;2023-07-13T11:02:58;4.80;;;1.90;;
47483;SDS011;54076;50.322;18.650;2023-07-13T11:19:24;3.70;;;1.50;;
47483;SDS011;54076;50.322;18.650;2023-07-13T11:25:02;4.10;;;1.70;;
47483;SDS011;54076;50.322;18.650;2023-07-13T11:35:30;4.00;;;1.40;;
47483;SDS011;54076;50.322;18.650;2023-07-13T11:40:31;5.50;;;2.10;;
47483;SDS011;54076;50.322;18.650;2023-07-13T11:45:33;4.30;;;1.50;;
47483;SDS011;54076;50.322;18.650;2023-07-13T11:50:34;4.50;;;1.80;;
47483;SDS011;54076;50.322;18.650;2023-07-13T11:55:35;5.80;;;2.20;;
47483;SDS011;54076;50.322;18.650;2023-07-13T12:00:38;6.50;;;2.00;;
47483;SDS011;54076;50.322;18.650;2023-07-13T12:06:05;4.50;;;1.90;;
47483;SDS011;54076;50.322;18.650;2023-07-13T12:11:26;6.60;;;2.20;;
47483;SDS011;54076;50.322;18.650;2023-07-13T12:16:30;4.50;;;1.80;;
47483;SDS011;54076;50.322;18.650;2023-07-13T12:21:39;6.10;;;2.40;;
47483;SDS011;54076;50.322;18.650;2023-07-13T12:26:42;4.90;;;2.40;;
47483;SDS011;54076;50.322;18.650;2023-07-13T12:31:45;9.60;;;5.50;;
47483;SDS011;54076;50.322;18.650;2023-07-13T12:36:59;6.70;;;2.50;;
47483;SDS011;54076;50.322;18.650;2023-07-13T12:42:22;4.60;;;2.20;;
47483;SDS011;54076;50.322;18.650;2023-07-13T12:47:28;4.00;;;1.80;;
47483;SDS011;54076;50.322;18.650;2023-07-13T12:52:33;4.60;;;1.80;;
47483;SDS011;54076;50.322;18.650;2023-07-13T12:57:49;4.40;;;1.70;;
47483;SDS011;54076;50.322;18.650;2023-07-13T13:02:56;3.70;;;1.50;;
47483;SDS011;54076;50.322;18.650;2023-07-13T13:07:58;3.90;;;1.50;;
47483;SDS011;54076;50.322;18.650;2023-07-13T13:12:59;5.60;;;2.00;;
47483;SDS011;54076;50.322;18.650;2023-07-13T13:18:00;4.50;;;1.80;;
47483;SDS011;54076;50.322;18.650;2023-07-13T13:23:01;6.00;;;2.00;;
47483;SDS011;54076;50.322;18.650;2023-07-13T13:28:02;4.60;;;2.10;;
47483;SDS011;54076;50.322;18.650;2023-07-13T13:33:04;4.70;;;2.20;;
47483;SDS011;54076;50.322;18.650;2023-07-13T13:38:13;3.90;;;1.90;;
47483;SDS011;54076;50.322;18.650;2023-07-13T13:43:22;5.80;;;2.50;;
47483;SDS011;54076;50.322;18.650;2023-07-13T13:48:31;5.60;;;2.30;;
47483;SDS011;54076;50.322;18.650;2023-07-13T13:53:33;4.70;;;2.20;;
47483;SDS011;54076;50.322;18.650;2023-07-13T13:58:34;4.60;;;2.60;;
47483;SDS011;54076;50.322;18.650;2023-07-13T14:03:35;21.40;;;11.30;;
47483;SDS011;54076;50.322;18.650;2023-07-13T14:08:36;5.50;;;3.10;;
47483;SDS011;54076;50.322;18.650;2023-07-13T14:13:40;5.40;;;2.90;;
47483;SDS011;54076;50.322;18.650;2023-07-13T14:18:44;6.30;;;3.00;;
47483;SDS011;54076;50.322;18.650;2023-07-13T14:23:46;8.50;;;3.60;;
47483;SDS011;54076;50.322;18.650;2023-07-13T14:28:51;5.80;;;3.00;;
47483;SDS011;54076;50.322;18.650;2023-07-13T14:33:53;6.30;;;3.30;;
47483;SDS011;54076;50.322;18.650;2023-07-13T14:38:55;7.10;;;3.20;;
47483;SDS011;54076;50.322;18.650;2023-07-13T14:43:57;5.80;;;3.10;;
47483;SDS011;54076;50.322;18.650;2023-07-13T14:49:03;8.30;;;3.10;;
47483;SDS011;54076;50.322;18.650;2023-07-13T14:54:08;4.80;;;2.80;;
47483;SDS011;54076;50.322;18.650;2023-07-13T14:59:10;4.70;;;2.80;;
47483;SDS011;54076;50.322;18.650;2023-07-13T15:04:13;5.60;;;2.80;;
47483;SDS011;54076;50.322;18.650;2023-07-13T15:09:14;5.90;;;2.70;;
47483;SDS011;54076;50.322;18.650;2023-07-13T15:14:15;4.30;;;2.60;;
47483;SDS011;54076;50.322;18.650;2023-07-13T15:19:17;5.40;;;2.20;;
47483;SDS011;54076;50.322;18.650;2023-07-13T15:24:20;3.60;;;2.10;;
47483;SDS011;54076;50.322;18.650;2023-07-13T15:29:22;4.50;;;2.10;;
47483;SDS011;54076;50.322;18.650;2023-07-13T15:34:24;3.60;;;1.80;;
47483;SDS011;54076;50.322;18.650;2023-07-13T15:39:26;3.90;;;2.00;;
47483;SDS011;54076;50.322;18.650;2023-07-13T15:44:28;3.90;;;1.90;;
47483;SDS011;54076;50.322;18.650;2023-07-13T15:49:31;3.70;;;1.80;;
47483;SDS011;54076;50.322;18.650;2023-07-13T15:54:32;4.80;;;2.40;;
47483;SDS011;54076;50.322;18.650;2023-07-13T15:59:33;3.40;;;1.70;;
47483;SDS011;54076;50.322;18.650;2023-07-13T16:04:34;3.50;;;1.80;;
47483;SDS011;54076;50.322;18.650;2023-07-13T16:09:35;4.20;;;1.80;;
47483;SDS011;54076;50.322;18.650;2023-07-13T16:14:39;4.00;;;2.00;;
47483;SDS011;54076;50.322;18.650;2023-07-13T16:19:41;6.80;;;1.70;;
47483;SDS011;54076;50.322;18.650;2023-07-13T16:24:43;3.70;;;1.60;;
47483;SDS011;54076;50.322;18.650;2023-07-13T16:29:45;3.60;;;1.90;;
47483;SDS011;54076;50.322;18.650;2023-07-13T16:34:46;3.70;;;1.70;;
47483;SDS011;54076;50.322;18.650;2023-07-13T16:39:51;3.60;;;1.70;;
47483;SDS011;54076;50.322;18.650;2023-07-13T16:44:58;3.30;;;1.60;;
47483;SDS011;54076;50.322;18.650;2023-07-13T16:49:59;3.50;;;1.80;;
47483;SDS011;54076;50.322;18.650;2023-07-13T16:55:04;10.00;;;2.70;;
47483;SDS011;54076;50.322;18.650;2023-07-13T17:05:24;3.30;;;1.60;;
47483;SDS011;54076;50.322;18.650;2023-07-13T17:10:26;8.10;;;4.80;;
47483;SDS011;54076;50.322;18.650;2023-07-13T17:15:27;4.70;;;1.60;;
47483;SDS011;54076;50.322;18.650;2023-07-13T17:20:34;2.90;;;1.20;;
47483;SDS011;54076;50.322;18.650;2023-07-13T17:25:43;4.00;;;1.50;;
47483;SDS011;54076;50.322;18.650;2023-07-13T17:30:45;3.90;;;1.30;;
47483;SDS011;54076;50.322;18.650;2023-07-13T17:35:47;3.00;;;1.30;;
47483;SDS011;54076;50.322;18.650;2023-07-13T17:40:48;3.70;;;1.50;;
47483;SDS011;54076;50.322;18.650;2023-07-13T17:45:57;3.20;;;1.40;;
47483;SDS011;54076;50.322;18.650;2023-07-13T17:50:58;3.30;;;1.50;;
47483;SDS011;54076;50.322;18.650;2023-07-13T17:55:59;3.00;;;1.40;;
47483;SDS011;54076;50.322;18.650;2023-07-13T18:01:00;4.00;;;1.50;;
47483;SDS011;54076;50.322;18.650;2023-07-13T18:06:02;4.30;;;1.50;;
47483;SDS011;54076;50.322;18.650;2023-07-13T18:11:04;3.30;;;1.30;;
47483;SDS011;54076;50.322;18.650;2023-07-13T18:16:21;5.10;;;1.80;;
47483;SDS011;54076;50.322;18.650;2023-07-13T18:21:27;3.80;;;1.80;;
47483;SDS011;54076;50.322;18.650;2023-07-13T18:26:30;4.70;;;2.00;;
47483;SDS011;54076;50.322;18.650;2023-07-13T18:31:33;3.70;;;1.80;;
47483;SDS011;54076;50.322;18.650;2023-07-13T18:36:37;3.60;;;1.90;;
47483;SDS011;54076;50.322;18.650;2023-07-13T18:41:39;4.30;;;1.90;;
47483;SDS011;54076;50.322;18.650;2023-07-13T18:46:43;4.10;;;1.60;;
47483;SDS011;54076;50.322;18.650;2023-07-13T18:51:44;3.80;;;1.80;;
47483;SDS011;54076;50.322;18.650;2023-07-13T18:56:46;4.50;;;2.00;;
47483;SDS011;54076;50.322;18.650;2023-07-13T19:01:47;5.50;;;2.40;;
47483;SDS011;54076;50.322;18.650;2023-07-13T19:06:48;3.80;;;1.90;;
47483;SDS011;54076;50.322;18.650;2023-07-13T19:11:49;3.80;;;1.90;;
47483;SDS011;54076;50.322;18.650;2023-07-13T19:16:50;5.90;;;2.00;;
47483;SDS011;54076;50.322;18.650;2023-07-13T19:21:51;4.70;;;2.20;;
47483;SDS011;54076;50.322;18.650;2023-07-13T19:26:56;6.70;;;2.50;;
47483;SDS011;54076;50.322;18.650;2023-07-13T19:31:58;4.80;;;2.30;;
47483;SDS011;54076;50.322;18.650;2023-07-13T19:37:02;5.60;;;2.30;;
47483;SDS011;54076;50.322;18.650;2023-07-13T19:42:21;6.60;;;2.40;;
47483;SDS011;54076;50.322;18.650;2023-07-13T19:47:23;6.20;;;2.70;;
47483;SDS011;54076;50.322;18.650;2023-07-13T19:52:26;6.60;;;2.20;;
47483;SDS011;54076;50.322;18.650;2023-07-13T19:57:28;6.20;;;2.60;;
47483;SDS011;54076;50.322;18.650;2023-07-13T20:02:29;6.30;;;3.10;;
47483;SDS011;54076;50.322;18.650;2023-07-13T20:07:30;6.20;;;2.90;;
47483;SDS011;54076;50.322;18.650;2023-07-13T20:12:35;7.20;;;2.90;;
47483;SDS011;54076;50.322;18.650;2023-07-13T20:17:37;5.80;;;3.40;;
47483;SDS011;54076;50.322;18.650;2023-07-13T20:22:41;4.70;;;2.60;;
47483;SDS011;54076;50.322;18.650;2023-07-13T20:27:42;6.30;;;2.80;;
47483;SDS011;54076;50.322;18.650;2023-07-13T20:32:43;5.50;;;2.60;;
47483;SDS011;54076;50.322;18.650;2023-07-13T20:37:46;6.40;;;3.20;;
47483;SDS011;54076;50.322;18.650;2023-07-13T20:42:51;7.20;;;3.10;;
47483;SDS011;54076;50.322;18.650;2023-07-13T20:47:53;6.80;;;3.80;;
47483;SDS011;54076;50.322;18.650;2023-07-13T20:52:58;6.50;;;3.40;;
47483;SDS011;54076;50.322;18.650;2023-07-13T20:58:00;6.80;;;4.00;;
47483;SDS011;54076;50.322;18.650;2023-07-13T21:03:03;6.20;;;3.80;;
47483;SDS011;54076;50.322;18.650;2023-07-13T21:08:10;7.90;;;4.50;;
47483;SDS011;54076;50.322;18.650;2023-07-13T21:13:13;7.30;;;4.30;;
47483;SDS011;54076;50.322;18.650;2023-07-13T21:18:24;8.70;;;4.60;;
47483;SDS011;54076;50.322;18.650;2023-07-13T21:23:27;7.80;;;4.30;;
47483;SDS011;54076;50.322;18.650;2023-07-13T21:28:35;8.40;;;4.70;;
47483;SDS011;54076;50.322;18.650;2023-07-13T21:33:43;7.50;;;3.90;;
47483;SDS011;54076;50.322;18.650;2023-07-13T21:38:44;7.30;;;4.50;;
47483;SDS011;54076;50.322;18.650;2023-07-13T21:43:46;6.70;;;4.10;;
47483;SDS011;54076;50.322;18.650;2023-07-13T21:48:47;6.80;;;3.70;;
47483;SDS011;54076;50.322;18.650;2023-07-13T21:53:49;8.40;;;4.30;;
47483;SDS011;54076;50.322;18.650;2023-07-13T21:58:51;7.80;;;4.30;;
47483;SDS011;54076;50.322;18.650;2023-07-13T22:03:56;8.70;;;4.00;;
47483;SDS011;54076;50.322;18.650;2023-07-13T22:08:58;7.50;;;4.50;;
47483;SDS011;54076;50.322;18.650;2023-07-13T22:13:59;6.70;;;4.00;;
47483;SDS011;54076;50.322;18.650;2023-07-13T22:19:11;6.80;;;4.00;;
47483;SDS011;54076;50.322;18.650;2023-07-13T22:24:15;7.00;;;3.70;;
47483;SDS011;54076;50.322;18.650;2023-07-13T22:29:20;7.60;;;4.20;;
47483;SDS011;54076;50.322;18.650;2023-07-13T22:34:24;7.90;;;4.50;;
47483;SDS011;54076;50.322;18.650;2023-07-13T22:39:27;7.40;;;4.60;;
47483;SDS011;54076;50.322;18.650;2023-07-13T22:44:32;7.50;;;4.90;;
47483;SDS011;54076;50.322;18.650;2023-07-13T22:49:34;10.30;;;4.70;;
47483;SDS011;54076;50.322;18.650;2023-07-13T22:54:36;8.20;;;4.70;;
47483;SDS011;54076;50.322;18.650;2023-07-13T22:59:37;11.70;;;6.80;;
47483;SDS011;54076;50.322;18.650;2023-07-13T23:04:38;8.90;;;4.30;;
47483;SDS011;54076;50.322;18.650;2023-07-13T23:09:39;9.40;;;5.50;;
47483;SDS011;54076;50.322;18.650;2023-07-13T23:14:41;8.40;;;5.60;;
47483;SDS011;54076;50.322;18.650;2023-07-13T23:19:41;10.10;;;6.20;;
47483;SDS011;54076;50.322;18.650;2023-07-13T23:24:43;10.50;;;5.90;;
47483;SDS011;54076;50.322;18.650;2023-07-13T23:29:43;11.90;;;6.30;;
47483;SDS011;54076;50.322;18.650;2023-07-13T23:34:46;10.30;;;6.10;;
47483;SDS011;54076;50.322;18.650;2023-07-13T23:39:46;8.70;;;5.80;;
47483;SDS011;54076;50.322;18.650;2023-07-13T23:44:47;11.20;;;6.20;;
47483;SDS011;54076;50.322;18.650;2023-07-13T23:49:48;11.20;;;6.30;;
47483;SDS011;54076;50.322;18.650;2023-07-13T23:54:49;11.60;;;6.50;;
47483;SDS011;54076;50.322;18.650;2023-07-13T23:59:50;10.30;;;6.40;;
